Last 24 Hours

OV-Siberia 8700'

Hourly Data | America/Los_Angeles
as of 5/7/26 6:42 AM PDT
Date & Time Temp (°F) RH (%) Dew Pt (°F) Wet Bulb (°F) Wind Dir (°) Wind Spd (mph) Wind Gust (mph) WindChill (°F) Daily Min Temp (°F) Daily Max Temp (°F)
5/7/26 - 0600 46.0 56 31.4 38.9 WNW | 302 8.2 16.0 42.2 45.5 49.2
5/7/26 - 0500 46.5 57 32.1 39.4 WNW | 301 6.5 14.9 43.7 46.3 49.2
5/7/26 - 0400 46.5 61 34.0 40.2 WNW | 287 4.7 9.1 45.9 46.5 49.2
5/7/26 - 0300 47.7 64 36.2 41.7 W | 278 3.1 7.6 47.7 47.7 49.2
5/7/26 - 0200 48.8 63 36.8 42.5 W | 271 3.1 6.6 48.2 48.2 49.2
5/7/26 - 0100 49.1 61 36.2 42.4 WSW | 256 0.5 4.3 48.9 48.2 49.2
5/7/26 - 0000 48.5 59 34.9 41.5 E | 83 1.7 7.0 48.5 39.0 55.5
5/6/26 - 2300 48.0 64 36.3 41.9 ENE | 68 2.4 7.0 50.0 39.0 55.5
5/6/26 - 2200 51.7 48 32.9 42.1 N | 0 1.1 4.4 50.5 39.0 55.5
5/6/26 - 2100 51.9 43 30.3 41.3 N | 0 2.2 5.4 49.7 39.0 55.5
5/6/26 - 2000 49.7 72 41.2 44.9 NW | 319 4.0 11.3 49.1 39.0 55.5
5/6/26 - 1900 51.1 73 42.7 46.3 NW | 315 4.4 14.9 51.5 39.0 55.5
5/6/26 - 1800 52.3 78 45.8 48.5 NE | 46 1.9 9.8 54.2 39.0 55.5
5/6/26 - 1700 54.0 43 31.8 42.7 E | 86 2.8 8.2 53.1 39.0 54.3
5/6/26 - 1600 52.9 43 31.0 41.9 E | 90 4.1 13.4 51.3 39.0 52.9
5/6/26 - 1500 52.6 47 32.7 42.4 E | 87 4.8 15.7 50.3 39.0 52.6
5/6/26 - 1400 50.9 45 30.5 40.9 E | 89 5.9 15.2 48.4 39.0 51.7
5/6/26 - 1300 48.9 49 30.8 40.0 E | 86 6.2 15.7 46.4 39.0 50.2
5/6/26 - 1200 48.3 59 34.6 41.2 ENE | 78 7.8 17.3 43.5 39.0 48.6
5/6/26 - 1100 45.9 63 34.1 39.9 E | 85 6.0 16.6 42.7 39.0 46.7
5/6/26 - 1000 44.9 70 35.6 40.1 E | 91 5.0 11.6 42.0 39.0 45.5
5/6/26 - 0900 43.6 75 36.4 39.9 N | 0 5.7 17.3 39.8 39.0 44.1
5/6/26 - 0800 42.3 75 35.1 38.7 E | 83 6.9 14.6 36.7 39.0 42.6
5/6/26 - 0700 40.4 83 35.7 38.0 E | 81 6.7 15.4 35.8 39.0 42.6
5/6/26 - 0600 39.4 86 35.4 37.4 N | 0 7.3 17.4 34.5 39.0 42.6
Max 54.0 86 45.8 48.5 - 8.2 17.4 54.2 48.2 55.5
Avg 48.1 62 35.0 41.4 - 4.5 11.9 46.2 - -
Min 39.4 43 30.3 37.4 - 0.5 4.3 34.5 39.0 42.6